Time;durP1;ratioP1;P1;durP2;ratioP2;P2;SDS_P1;SDS_P2;PMS_P1;PMS_P2;Temp;Humidity;BMP_temperature;BMP_pressure;BME280_temperature;BME280_humidity;BME280_pressure;Samples;Min_cycle;Max_cycle;Signal;HPM_P1;HPM_P2
2022/12/29 00:03:03;;;;;;;3.77;2.60;;;;;;;6.57;93.96;98704.41;1705141;84;20919;-81
2022/12/29 00:09:31;;;;;;;3.85;3.25;;;;;;;6.59;93.96;98694.80;1705136;84;20959;-82
2022/12/29 00:15:58;;;;;;;5.62;2.67;;;;;;;6.57;94.08;98691.44;1705141;84;21419;-82
2022/12/29 00:36:00;;;;;;;2.67;2.15;;;;;;;6.56;94.04;98670.31;1705298;84;20959;-82
2022/12/29 00:55:46;;;;;;;1.98;1.47;;;;;;;6.44;93.89;98664.80;1705267;84;20935;-83
2022/12/29 01:05:13;;;;;;;3.02;1.10;;;;;;;6.46;94.16;98647.39;1700738;84;20916;-83
2022/12/29 01:11:40;;;;;;;1.60;1.42;;;;;;;6.48;94.14;98636.50;1700741;84;20975;-83
2022/12/29 01:18:07;;;;;;;2.75;1.40;;;;;;;6.50;94.11;98647.64;1700703;84;20935;-83
2022/12/29 01:24:34;;;;;;;1.55;0.93;;;;;;;6.54;94.11;98641.02;1700724;84;20956;-83
2022/12/29 01:27:03;;;;;;;1.85;1.25;;;;;;;6.57;94.26;98639.56;1706360;84;20939;-83
2022/12/29 01:29:32;;;;;;;1.35;0.90;;;;;;;6.58;94.18;98638.64;1700670;84;20974;-83
2022/12/29 01:32:00;;;;;;;2.50;0.90;;;;;;;6.57;94.12;98633.08;1700808;84;20944;-84
2022/12/29 01:34:29;;;;;;;2.17;1.00;;;;;;;6.54;94.06;98637.13;1700574;84;20939;-84
2022/12/29 01:36:58;;;;;;;1.22;1.10;;;;;;;6.57;94.21;98640.40;1700584;84;20983;-83
2022/12/29 01:39:28;;;;;;;1.50;0.90;;;;;;;6.56;94.14;98637.89;1662130;84;20983;-83
2022/12/29 01:41:56;;;;;;;1.35;1.20;;;;;;;6.61;94.39;98635.89;1700753;84;20940;-83
2022/12/29 01:48:24;;;;;;;1.17;1.07;;;;;;;6.59;94.17;98632.56;1700714;84;20971;-82
2022/12/29 01:55:05;;;;;;;1.50;0.70;;;;;;;6.52;94.11;98627.27;1678913;82;21122;-87
2022/12/29 01:57:37;;;;;;;0.80;0.50;;;;;;;6.43;94.15;98611.23;1682649;83;20970;-87
2022/12/29 02:00:11;;;;;;;1.15;0.60;;;;;;;6.44;94.25;98623.31;1638747;86;21571;-87
2022/12/29 02:02:38;;;;;;;1.00;0.70;;;;;;;6.43;94.24;98613.83;1630770;86;21004;-87
2022/12/29 02:05:16;;;;;;;1.47;0.68;;;;;;;6.42;94.25;98618.64;1628816;84;21632;-83
2022/12/29 02:07:43;;;;;;;0.85;0.60;;;;;;;6.43;94.39;98611.23;1659891;84;21014;-83
2022/12/29 02:10:10;;;;;;;1.52;1.00;;;;;;;6.49;94.43;98617.42;1665976;84;21034;-83
2022/12/29 02:12:37;;;;;;;2.12;1.12;;;;;;;6.43;94.13;98608.64;1666514;84;21050;-82
2022/12/29 02:15:05;;;;;;;2.12;1.07;;;;;;;6.43;94.26;98615.13;1672420;84;21069;-83
2022/12/29 02:17:52;;;;;;;1.75;1.25;;;;;;;6.47;94.59;98605.01;1673268;84;21045;-83
2022/12/29 02:21:10;;;;;;;2.98;1.70;;;;;;;6.54;94.51;98608.13;1671642;84;20970;-82
2022/12/29 02:24:18;;;;;;;3.12;1.90;;;;;;;6.51;94.26;98605.69;1664386;84;20972;-83
2022/12/29 02:27:18;;;;;;;2.17;1.20;;;;;;;6.48;94.30;98601.48;1665349;84;20982;-82
2022/12/29 02:30:31;;;;;;;1.42;1.00;;;;;;;6.45;94.27;98597.75;1654180;84;20980;-83
2022/12/29 02:33:24;;;;;;;1.32;0.88;;;;;;;6.41;94.21;98591.05;1658958;84;21003;-82
2022/12/29 02:36:24;;;;;;;3.55;1.60;;;;;;;6.34;94.05;98587.06;1649461;84;21031;-83
2022/12/29 02:39:05;;;;;;;1.10;1.00;;;;;;;6.33;94.18;98585.82;1667588;84;21538;-83
2022/12/29 02:41:48;;;;;;;1.20;1.10;;;;;;;6.29;94.26;98583.84;1654598;85;21903;-82
2022/12/29 02:44:38;;;;;;;2.15;1.20;;;;;;;6.26;94.09;98578.81;1660754;84;21110;-83
2022/12/29 02:47:31;;;;;;;0.65;0.65;;;;;;;6.24;94.09;98584.52;1670780;84;21506;-81
2022/12/29 02:50:15;;;;;;;1.05;0.90;;;;;;;6.30;94.46;98575.60;1682941;82;21540;-82
2022/12/29 02:52:53;;;;;;;1.20;1.10;;;;;;;6.33;94.40;98581.50;1678701;84;21054;-82
2022/12/29 02:55:23;;;;;;;0.90;0.75;;;;;;;6.32;94.26;98580.27;1688153;83;21038;-82
2022/12/29 02:58:16;;;;;;;1.80;1.70;;;;;;;6.34;94.34;98574.09;1689314;83;21073;-82
2022/12/29 03:01:12;;;;;;;1.07;0.90;;;;;;;6.34;94.35;98563.73;1633854;86;21026;-82
2022/12/29 03:03:58;;;;;;;2.00;1.35;;;;;;;6.36;94.40;98561.91;1636973;86;21001;-83
2022/12/29 03:06:31;;;;;;;1.52;1.30;;;;;;;6.43;94.58;98545.13;1631733;86;21018;-82
2022/12/29 03:09:18;;;;;;;1.15;0.80;;;;;;;6.42;94.32;98539.56;1632577;86;21043;-82
2022/12/29 03:12:09;;;;;;;2.70;1.90;;;;;;;6.42;94.31;98540.86;1632869;86;21073;-82
2022/12/29 03:17:52;;;;;;;1.32;0.90;;;;;;;6.41;94.25;98552.16;1636173;86;21481;-83
2022/12/29 03:20:26;;;;;;;1.30;0.90;;;;;;;6.39;94.20;98546.66;1636527;86;21140;-82
2022/12/29 03:23:00;;;;;;;3.60;0.70;;;;;;;6.40;94.32;98553.05;1632504;86;21037;-82
2022/12/29 03:25:34;;;;;;;0.55;0.50;;;;;;;6.41;94.42;98551.30;1633108;85;21113;-82
2022/12/29 03:28:16;;;;;;;1.07;0.70;;;;;;;6.38;94.22;98544.50;1636793;86;21002;-83
2022/12/29 03:30:43;;;;;;;1.22;0.70;;;;;;;6.38;94.40;98541.91;1635105;86;21017;-82
2022/12/29 03:33:15;;;;;;;1.37;1.00;;;;;;;6.39;94.37;98535.83;1630887;86;21052;-82
2022/12/29 03:35:44;;;;;;;1.55;0.80;;;;;;;6.40;94.33;98532.31;1626744;86;21002;-82
2022/12/29 03:38:24;;;;;;;0.80;0.68;;;;;;;6.45;94.39;98530.33;1691181;83;21010;-82
2022/12/29 03:41:18;;;;;;;1.55;1.00;;;;;;;6.44;94.41;98523.91;1664964;84;21054;-82
2022/12/29 03:43:45;;;;;;;1.35;1.20;;;;;;;6.46;94.40;98520.33;1670496;85;20962;-82
2022/12/29 03:46:12;;;;;;;1.20;1.00;;;;;;;6.44;94.25;98520.89;1687918;84;21066;-82
2022/12/29 03:48:38;;;;;;;1.20;1.10;;;;;;;6.44;94.16;98520.02;1687434;84;21028;-82
2022/12/29 03:51:05;;;;;;;2.27;0.98;;;;;;;6.38;94.12;98519.88;1682853;84;21061;-82
2022/12/29 03:53:32;;;;;;;1.22;1.00;;;;;;;6.40;94.39;98519.34;1682503;84;21587;-82
2022/12/29 03:55:58;;;;;;;2.20;1.50;;;;;;;6.37;94.29;98519.50;1673577;85;20936;-82
2022/12/29 03:58:25;;;;;;;1.27;1.17;;;;;;;6.40;94.37;98521.11;1641488;86;21042;-82
2022/12/29 04:00:51;;;;;;;1.17;1.07;;;;;;;6.39;94.35;98518.98;1681397;85;21034;-82
2022/12/29 04:03:18;;;;;;;2.03;1.53;;;;;;;6.39;94.33;98512.49;1681922;85;21007;-83
2022/12/29 04:05:48;;;;;;;2.15;1.82;;;;;;;6.38;94.33;98510.80;1661714;84;20968;-83
2022/12/29 04:08:23;;;;;;;1.55;1.05;;;;;;;6.35;94.24;98507.06;1661674;84;21000;-82
2022/12/29 04:10:50;;;;;;;3.75;1.50;;;;;;;6.36;94.33;98504.87;1659841;84;21014;-82
2022/12/29 04:13:18;;;;;;;3.70;1.30;;;;;;;6.38;94.45;98506.91;1675551;85;20967;-83
2022/12/29 04:15:47;;;;;;;1.62;1.52;;;;;;;6.38;94.36;98503.02;1675350;85;20979;-82
2022/12/29 04:18:15;;;;;;;2.10;1.90;;;;;;;6.35;94.24;98505.77;1643522;86;21524;-82
2022/12/29 04:21:17;;;;;;;2.25;1.90;;;;;;;6.35;94.48;98503.17;1684138;84;21010;-82
2022/12/29 04:23:43;;;;;;;2.62;2.17;;;;;;;6.42;94.50;98505.86;1679846;85;21541;-83
2022/12/29 04:26:10;;;;;;;4.42;2.83;;;;;;;6.42;94.47;98509.75;1679632;84;21509;-82
2022/12/29 04:28:38;;;;;;;3.45;2.25;;;;;;;6.42;94.28;98497.25;1676633;85;21019;-82
2022/12/29 04:31:04;;;;;;;;;;;;;;;6.38;94.33;98503.02;1663268;84;21068;-83
2022/12/29 04:33:33;;;;;;;3.87;2.72;;;;;;;6.39;94.30;98503.88;1645451;85;20153;-83
2022/12/29 04:35:59;;;;;;;3.05;2.67;;;;;;;6.36;94.31;98502.28;1678723;85;20979;-82
2022/12/29 04:38:28;;;;;;;3.95;3.00;;;;;;;6.40;94.43;98498.61;1683288;85;21058;-82
2022/12/29 04:41:01;;;;;;;2.95;2.65;;;;;;;6.39;94.41;98491.75;1660166;85;20948;-82
2022/12/29 04:43:28;;;;;;;2.77;2.25;;;;;;;6.40;94.36;98493.42;1681460;85;21525;-82
2022/12/29 04:45:55;;;;;;;3.83;3.10;;;;;;;6.35;94.40;98481.13;1663645;84;21000;-82
2022/12/29 04:48:22;;;;;;;3.30;2.33;;;;;;;6.40;94.47;98481.75;1659222;84;21039;-82
2022/12/29 04:50:49;;;;;;;5.33;3.30;;;;;;;6.41;94.32;98487.34;1666147;84;21117;-82
2022/12/29 04:53:17;;;;;;;4.60;3.17;;;;;;;6.44;94.43;98491.50;1682129;83;21006;-82
2022/12/29 04:55:43;;;;;;;;;;;;;;;6.46;94.38;98493.11;1683628;83;21050;-82
2022/12/29 04:58:10;;;;;;;4.00;3.17;;;;;;;6.46;94.30;98485.33;1685062;83;20111;-82
2022/12/29 05:00:36;;;;;;;3.12;2.72;;;;;;;6.46;94.41;98487.09;1674345;83;21514;-83
2022/12/29 05:03:03;;;;;;;6.42;3.70;;;;;;;6.42;94.30;98487.70;1680236;83;21035;-83
2022/12/29 05:05:30;;;;;;;7.33;4.05;;;;;;;6.39;94.23;98476.20;1676346;84;21042;-82
2022/12/29 05:07:57;;;;;;;7.20;4.03;;;;;;;6.40;94.34;98480.45;1676572;83;21101;-82
2022/12/29 05:10:23;;;;;;;8.85;4.42;;;;;;;6.41;94.38;98480.86;1679959;83;21026;-83
2022/12/29 05:12:50;;;;;;;5.77;4.07;;;;;;;6.42;94.33;98476.50;1686071;83;20972;-82
2022/12/29 05:15:19;;;;;;;6.62;4.62;;;;;;;6.43;94.39;98464.73;1681101;83;20976;-82
2022/12/29 05:17:49;;;;;;;5.70;3.85;;;;;;;6.41;94.32;98465.73;1680344;84;21565;-82
2022/12/29 05:20:15;;;;;;;6.45;3.80;;;;;;;6.42;94.35;98470.86;1684357;83;21485;-82
2022/12/29 05:22:42;;;;;;;5.30;4.25;;;;;;;6.40;94.35;98461.01;1686202;83;21123;-82
2022/12/29 05:25:09;;;;;;;4.78;3.90;;;;;;;6.43;94.39;98450.48;1659162;85;20987;-83
2022/12/29 05:27:36;;;;;;;;;;;;;;;6.42;94.27;98445.39;1643339;86;20963;-82
2022/12/29 05:30:06;;;;;;;6.25;4.30;;;;;;;6.44;94.43;98450.88;1660509;84;20408;-82
2022/12/29 05:32:32;;;;;;;7.20;5.20;;;;;;;6.45;94.45;98439.58;1658704;84;21118;-82
2022/12/29 05:34:59;;;;;;;6.80;5.00;;;;;;;6.47;94.31;98450.72;1665494;84;21100;-82
2022/12/29 05:37:25;;;;;;;6.35;5.30;;;;;;;6.42;94.10;98446.22;1640660;86;21089;-82
2022/12/29 05:39:52;;;;;;;5.78;4.87;;;;;;;6.38;94.12;98443.39;1658519;84;21006;-83
2022/12/29 05:42:18;;;;;;;6.30;5.25;;;;;;;6.36;94.13;98443.94;1662824;84;21010;-82
2022/12/29 05:44:45;;;;;;;7.93;5.50;;;;;;;6.33;94.17;98438.91;1673098;84;20987;-82
2022/12/29 05:47:12;;;;;;;7.12;4.70;;;;;;;6.33;94.15;98442.80;1664079;84;21011;-82
2022/12/29 05:49:38;;;;;;;6.17;4.25;;;;;;;6.36;94.37;98445.24;1675511;84;21036;-82
2022/12/29 05:52:05;;;;;;;6.60;4.95;;;;;;;6.35;94.34;98440.95;1687501;83;21504;-82
2022/12/29 05:54:31;;;;;;;7.70;5.22;;;;;;;6.37;94.41;98433.95;1700344;83;20990;-82
2022/12/29 05:57:00;;;;;;;7.17;5.20;;;;;;;6.39;94.41;98433.42;1688799;83;21080;-82
2022/12/29 05:59:26;;;;;;;6.90;5.47;;;;;;;6.39;94.41;98424.34;1696967;84;21045;-82
2022/12/29 06:01:53;;;;;;;5.83;4.75;;;;;;;6.40;94.35;98412.21;1695513;83;20970;-82
2022/12/29 06:04:19;;;;;;;6.35;4.78;;;;;;;6.37;94.17;98405.42;1697201;83;21001;-82
2022/12/29 06:06:46;;;;;;;5.85;4.97;;;;;;;6.36;94.29;98405.48;1696114;83;20989;-82
2022/12/29 06:09:12;;;;;;;8.08;5.05;;;;;;;6.33;94.24;98403.92;1692244;83;20999;-83
2022/12/29 06:11:39;;;;;;;7.10;5.42;;;;;;;6.35;94.29;98404.66;1697247;83;21076;-83
2022/12/29 06:14:07;;;;;;;6.37;4.67;;;;;;;6.36;94.30;98398.58;1699443;83;20997;-82
2022/12/29 06:16:34;;;;;;;6.15;4.97;;;;;;;6.38;94.28;98401.91;1685970;83;20992;-82
2022/12/29 06:19:03;;;;;;;6.90;4.78;;;;;;;6.41;94.36;98400.48;1692367;83;21009;-82
2022/12/29 06:21:29;;;;;;;8.13;5.10;;;;;;;6.44;94.33;98404.20;1693368;83;21550;-82
2022/12/29 06:23:56;;;;;;;5.97;4.65;;;;;;;6.43;94.19;98405.11;1696574;84;21501;-83
2022/12/29 06:26:23;;;;;;;5.00;3.90;;;;;;;6.41;94.18;98406.96;1637511;86;21493;-81
2022/12/29 06:28:51;;;;;;;6.85;4.33;;;;;;;6.44;94.24;98400.31;1693924;83;21021;-81
2022/12/29 06:31:18;;;;;;;9.20;5.33;;;;;;;6.41;94.08;98401.78;1698422;83;20998;-81
2022/12/29 06:33:44;;;;;;;6.62;5.15;;;;;;;6.40;94.20;98393.59;1686991;84;21052;-81
2022/12/29 06:36:11;;;;;;;6.05;4.47;;;;;;;6.44;94.27;98396.86;1689545;83;20990;-81
2022/12/29 06:38:43;;;;;;;6.83;5.57;;;;;;;6.42;94.13;98412.52;1648254;86;21506;-82
2022/12/29 06:41:10;;;;;;;6.45;4.50;;;;;;;6.44;94.31;98405.94;1684639;83;20947;-81
2022/12/29 06:43:37;;;;;;;6.60;4.92;;;;;;;6.42;94.13;98400.84;1680015;83;21556;-83
2022/12/29 06:46:05;;;;;;;8.35;4.92;;;;;;;6.39;94.17;98398.41;1635930;86;21015;-82
2022/12/29 06:48:31;;;;;;;9.53;4.53;;;;;;;6.43;94.29;98405.11;1698091;83;21022;-85
2022/12/29 06:50:58;;;;;;;7.93;5.20;;;;;;;6.47;94.35;98401.45;1695015;82;21058;-82
2022/12/29 06:53:25;;;;;;;6.22;4.90;;;;;;;6.47;94.19;98411.83;1662515;84;21054;-82
2022/12/29 06:55:51;;;;;;;6.97;4.85;;;;;;;6.45;94.19;98405.88;1677638;84;21537;-82
2022/12/29 06:58:18;;;;;;;6.60;3.58;;;;;;;6.45;94.21;98401.98;1676823;84;21458;-83
2022/12/29 07:00:50;;;;;;;7.67;4.50;;;;;;;6.44;94.14;98404.20;1697377;82;20986;-82
2022/12/29 07:03:23;;;;;;;6.45;5.00;;;;;;;6.40;94.19;98409.16;1696685;84;21029;-82
2022/12/29 07:05:49;;;;;;;7.72;4.83;;;;;;;6.43;94.29;98408.99;1699119;82;21019;-83
2022/12/29 07:08:19;;;;;;;6.70;5.17;;;;;;;6.43;94.26;98401.22;1699033;83;21005;-83
2022/12/29 07:11:09;;;;;;;7.05;4.92;;;;;;;6.45;94.27;98405.88;1700914;83;21070;-82
2022/12/29 07:13:23;;;;;;;7.40;5.05;;;;;;;6.41;94.28;98414.73;1697776;82;20946;-83
2022/12/29 07:15:51;;;;;;;7.15;5.30;;;;;;;6.41;94.32;98417.33;1670019;84;21488;-82
2022/12/29 07:18:22;;;;;;;7.40;4.87;;;;;;;6.40;94.31;98415.64;1690361;83;21009;-82
2022/12/29 07:20:49;;;;;;;7.15;5.50;;;;;;;6.41;94.41;98415.17;1689453;83;21002;-82
2022/12/29 07:23:16;;;;;;;7.45;4.85;;;;;;;6.48;94.36;98416.09;1690617;83;21046;-82
2022/12/29 07:25:45;;;;;;;9.73;4.50;;;;;;;6.56;94.58;98414.86;1692260;83;20991;-82
2022/12/29 07:28:13;;;;;;;6.17;5.25;;;;;;;6.62;94.53;98409.35;1689588;83;21013;-82
2022/12/29 07:30:45;;;;;;;7.40;5.20;;;;;;;6.63;94.38;98408.42;1684390;83;20931;-82
2022/12/29 07:33:12;;;;;;;6.90;4.60;;;;;;;6.63;94.37;98405.83;1683707;83;21497;-82
2022/12/29 07:35:39;;;;;;;5.60;4.50;;;;;;;6.65;94.20;98407.43;1681905;82;21009;-83
2022/12/29 07:38:05;;;;;;;5.97;5.15;;;;;;;6.68;94.30;98397.36;1686860;84;21524;-80
2022/12/29 07:40:32;;;;;;;9.18;5.28;;;;;;;6.73;94.22;98403.14;1683113;83;21570;-84
2022/12/29 07:43:02;;;;;;;5.47;4.00;;;;;;;6.74;94.28;98413.89;1683683;84;21041;-83
2022/12/29 07:45:43;;;;;;;7.50;5.45;;;;;;;6.76;94.23;98415.95;1678746;83;22155;-81
2022/12/29 07:48:08;;;;;;;7.43;5.00;;;;;;;6.79;94.37;98408.00;1679773;83;21034;-82
2022/12/29 07:50:35;;;;;;;4.70;4.25;;;;;;;6.82;94.31;98414.33;1673401;83;21033;-83
2022/12/29 07:53:03;;;;;;;8.95;5.10;;;;;;;6.86;94.40;98410.67;1649917;86;21492;-82
2022/12/29 07:55:29;;;;;;;5.28;3.80;;;;;;;6.90;94.45;98412.16;1656830;85;21570;-81
2022/12/29 07:57:56;;;;;;;6.73;5.20;;;;;;;6.94;94.51;98413.66;1657980;85;20986;-82
2022/12/29 08:00:23;;;;;;;7.72;4.60;;;;;;;6.94;94.39;98416.26;1659725;85;22215;-82
2022/12/29 08:02:54;;;;;;;6.22;3.90;;;;;;;6.94;94.34;98421.45;1625726;86;21521;-83
2022/12/29 08:05:29;;;;;;;5.35;4.50;;;;;;;6.90;94.12;98426.91;1646028;85;21119;-81
2022/12/29 08:07:59;;;;;;;6.28;4.22;;;;;;;6.88;94.18;98421.78;1635937;85;21569;-81
2022/12/29 08:10:38;;;;;;;5.65;4.28;;;;;;;6.92;94.28;98420.72;1626520;86;21008;-82
2022/12/29 08:13:08;;;;;;;4.72;3.62;;;;;;;6.94;94.28;98411.07;1657013;85;20978;-85
2022/12/29 08:16:03;;;;;;;6.80;5.15;;;;;;;7.01;94.38;98415.95;1624422;86;20999;-88
2022/12/29 08:18:29;;;;;;;8.25;4.80;;;;;;;7.05;94.44;98409.67;1627340;86;21094;-89
2022/12/29 08:21:03;;;;;;;8.35;4.25;;;;;;;7.08;94.38;98410.80;1636946;86;21656;-87
2022/12/29 08:23:33;;;;;;;6.33;4.85;;;;;;;7.08;94.29;98406.91;1639577;86;21141;-88
2022/12/29 08:26:03;;;;;;;4.53;3.65;;;;;;;7.07;94.25;98413.02;1624634;86;21067;-87
2022/12/29 08:28:30;;;;;;;5.45;3.47;;;;;;;7.10;94.40;98402.48;1644768;85;21033;-86
2022/12/29 08:31:02;;;;;;;5.53;3.42;;;;;;;7.15;94.43;98408.27;1624203;86;21142;-86
2022/12/29 08:33:31;;;;;;;4.20;3.30;;;;;;;7.20;94.36;98399.77;1651528;85;21110;-87
2022/12/29 08:36:10;;;;;;;4.50;3.30;;;;;;;7.22;94.31;98397.07;1653010;85;21078;-87
2022/12/29 08:38:37;;;;;;;4.22;3.47;;;;;;;7.24;94.30;98388.28;1653266;84;21518;-87
2022/12/29 08:41:04;;;;;;;5.08;3.37;;;;;;;7.26;94.35;98385.15;1668824;85;20969;-88
2022/12/29 08:43:31;;;;;;;6.93;3.37;;;;;;;7.32;94.38;98400.38;1655811;85;21113;-87
2022/12/29 08:46:04;;;;;;;4.77;3.50;;;;;;;7.32;94.37;98399.08;1651320;85;21544;-87
2022/12/29 08:48:29;;;;;;;5.05;4.00;;;;;;;7.33;94.22;98404.64;1655579;85;21539;-87
2022/12/29 08:50:55;;;;;;;4.53;3.30;;;;;;;7.34;94.39;98394.66;1665958;84;21675;-87
2022/12/29 08:53:23;;;;;;;4.95;4.03;;;;;;;7.40;94.46;98393.01;1689434;84;21061;-88
2022/12/29 08:55:59;;;;;;;5.03;3.40;;;;;;;7.45;94.44;98381.08;1685670;83;21070;-87
2022/12/29 08:58:34;;;;;;;4.30;3.05;;;;;;;7.45;94.25;98386.70;1682911;83;21526;-86
2022/12/29 09:01:00;;;;;;;5.10;3.75;;;;;;;7.45;94.23;98393.20;1682426;83;21049;-87
2022/12/29 09:03:27;;;;;;;4.30;3.15;;;;;;;7.48;94.32;98397.78;1659979;85;21032;-87
2022/12/29 09:05:58;;;;;;;6.78;4.58;;;;;;;7.50;94.40;98393.78;1676467;84;21009;-87
2022/12/29 09:08:25;;;;;;;5.53;3.45;;;;;;;7.51;94.29;98394.18;1667944;84;20990;-87
2022/12/29 09:10:55;;;;;;;5.05;3.70;;;;;;;7.52;94.45;98402.34;1675073;84;21042;-86
2022/12/29 09:13:27;;;;;;;5.30;3.67;;;;;;;7.56;94.35;98397.33;1663226;84;21014;-87
2022/12/29 09:16:00;;;;;;;3.55;3.05;;;;;;;7.54;94.25;98388.81;1696313;83;21080;-87
2022/12/29 09:18:26;;;;;;;4.75;2.70;;;;;;;7.60;94.41;98385.86;1689702;83;20969;-86
2022/12/29 09:21:00;;;;;;;4.17;3.07;;;;;;;7.67;94.61;98371.59;1697736;83;21053;-88
2022/12/29 09:23:27;;;;;;;3.85;2.80;;;;;;;7.77;94.76;98367.55;1693760;82;21547;-87
2022/12/29 09:25:54;;;;;;;4.37;3.12;;;;;;;7.84;94.59;98379.28;1670036;84;21005;-87
2022/12/29 09:28:22;;;;;;;4.08;3.17;;;;;;;7.91;94.51;98368.52;1672795;84;21034;-86
2022/12/29 09:30:49;;;;;;;3.52;2.90;;;;;;;7.94;94.70;98361.84;1672750;84;21133;-90
2022/12/29 09:33:19;;;;;;;3.27;2.95;;;;;;;7.92;94.54;98364.98;1674014;84;21018;-89
2022/12/29 09:35:53;;;;;;;3.17;2.65;;;;;;;7.99;94.81;98370.22;1701616;83;20973;-87
2022/12/29 09:38:23;;;;;;;3.05;2.70;;;;;;;8.08;94.94;98360.58;1688185;83;21018;-86
2022/12/29 09:41:22;;;;;;;6.65;2.83;;;;;;;8.15;94.83;98355.41;1675846;84;20943;-86
2022/12/29 09:44:33;;;;;;;2.90;2.60;;;;;;;8.27;94.94;98353.36;1679358;83;21013;-84
2022/12/29 09:47:04;;;;;;;3.65;2.95;;;;;;;8.37;94.90;98348.43;1683078;82;21742;-83
2022/12/29 09:49:42;;;;;;;3.87;3.27;;;;;;;8.47;94.79;98346.16;1693593;83;21038;-83
2022/12/29 09:52:22;;;;;;;7.03;2.80;;;;;;;8.53;94.79;98355.36;1677878;84;21085;-84
2022/12/29 09:55:10;;;;;;;3.62;2.92;;;;;;;8.60;94.83;98354.90;1679317;83;21093;-84
2022/12/29 09:57:47;;;;;;;4.80;3.47;;;;;;;8.69;94.80;98338.72;1654819;85;21084;-84
2022/12/29 10:00:43;;;;;;;4.28;2.92;;;;;;;8.72;94.57;98346.33;1638022;85;21002;-84
2022/12/29 10:10:08;;;;;;;4.53;3.42;;;;;;;8.89;94.64;98339.25;1614798;87;21549;-85
2022/12/29 10:12:51;;;;;;;6.42;3.92;;;;;;;8.96;94.79;98335.31;1617725;87;21064;-85
2022/12/29 10:15:45;;;;;;;7.90;3.77;;;;;;;9.02;94.68;98338.86;1472619;94;21571;-84
2022/12/29 10:18:32;;;;;;;3.70;2.90;;;;;;;9.02;94.34;98339.30;1475888;95;21071;-84
2022/12/29 10:21:27;;;;;;;;;;;;;;;9.00;94.46;98329.47;1474893;94;21214;-86
2022/12/29 10:23:56;;;;;;;4.55;3.08;;;;;;;9.05;94.47;98324.34;1466402;95;20792;-86
2022/12/29 10:26:31;;;;;;;3.52;2.80;;;;;;;9.09;94.42;98321.06;1502373;93;21634;-88
2022/12/29 10:29:03;;;;;;;5.10;3.15;;;;;;;9.11;94.26;98310.09;1471022;94;21102;-86
2022/12/29 10:31:51;;;;;;;4.17;3.08;;;;;;;9.14;94.13;98323.75;1469905;95;21866;-84
2022/12/29 10:34:37;;;;;;;4.87;2.95;;;;;;;9.09;93.83;98319.30;1481131;95;21081;-84
2022/12/29 10:37:12;;;;;;;5.20;3.08;;;;;;;9.10;93.96;98314.48;1483692;95;21098;-83
2022/12/29 10:39:53;;;;;;;3.92;2.83;;;;;;;9.06;93.89;98311.69;1481406;94;21062;-83
2022/12/29 10:42:31;;;;;;;3.60;3.02;;;;;;;9.05;93.84;98308.72;1495331;90;21101;-83
2022/12/29 10:44:59;;;;;;;4.92;3.00;;;;;;;9.03;93.69;98319.69;1531023;92;21194;-83
2022/12/29 10:47:33;;;;;;;4.30;2.80;;;;;;;8.98;93.57;98310.03;1553786;90;21563;-83
2022/12/29 10:50:02;;;;;;;3.67;2.92;;;;;;;8.96;93.70;98304.94;1553089;90;21127;-83
2022/12/29 10:52:31;;;;;;;4.28;2.65;;;;;;;9.01;93.80;98304.62;1610369;84;21015;-82
2022/12/29 10:55:14;;;;;;;3.20;2.40;;;;;;;9.04;93.71;98307.03;1681826;83;21499;-82
2022/12/29 10:57:45;;;;;;;5.53;3.00;;;;;;;8.99;93.55;98296.09;1679033;84;21006;-82
2022/12/29 11:00:22;;;;;;;7.00;2.90;;;;;;;9.00;93.58;98299.06;1696503;83;21029;-82
2022/12/29 11:03:19;;;;;;;3.98;2.45;;;;;;;8.99;93.46;98290.89;1694833;83;21074;-85
2022/12/29 11:06:09;;;;;;;4.58;2.50;;;;;;;9.03;93.59;98297.56;1674362;83;21478;-85
2022/12/29 11:08:47;;;;;;;4.75;3.30;;;;;;;9.05;93.50;98306.12;1698521;83;21021;-85
2022/12/29 11:11:34;;;;;;;3.42;2.60;;;;;;;9.14;93.74;98300.31;1649661;85;21501;-82
2022/12/29 11:14:22;;;;;;;4.47;2.75;;;;;;;9.17;93.47;98296.68;1592173;89;21057;-82
2022/12/29 11:17:07;;;;;;;3.17;2.50;;;;;;;9.18;93.50;98297.87;1559281;89;21524;-83
2022/12/29 11:19:34;;;;;;;4.20;2.75;;;;;;;9.22;93.54;98288.58;1613436;87;21046;-82
2022/12/29 11:22:28;;;;;;;6.00;3.33;;;;;;;9.21;93.27;98281.69;1592776;88;21113;-82
2022/12/29 11:24:59;;;;;;;4.70;2.75;;;;;;;9.15;93.02;98279.84;1593009;88;22224;-83
2022/12/29 11:27:32;;;;;;;5.60;3.47;;;;;;;9.11;93.05;98279.68;1599814;87;21057;-83
2022/12/29 11:30:03;;;;;;;5.33;2.70;;;;;;;9.13;93.34;98285.63;1575321;87;21021;-85
2022/12/29 11:32:36;;;;;;;6.78;2.85;;;;;;;9.13;93.23;98288.68;1604835;86;21015;-86
2022/12/29 11:35:05;;;;;;;3.80;2.77;;;;;;;9.21;93.21;98279.08;1609173;86;21193;-83
2022/12/29 11:37:43;;;;;;;5.08;2.62;;;;;;;9.19;93.12;98280.03;1611014;86;20978;-86
2022/12/29 11:40:17;;;;;;;3.20;2.17;;;;;;;9.19;93.06;98290.45;1613109;88;21047;-85
2022/12/29 11:42:57;;;;;;;4.58;2.62;;;;;;;9.18;92.93;98280.94;1609961;87;21091;-85
2022/12/29 11:45:33;;;;;;;3.25;2.52;;;;;;;9.16;92.89;98278.92;1610241;87;21033;-86
2022/12/29 11:48:17;;;;;;;5.13;2.90;;;;;;;9.21;93.01;98271.27;1622020;85;20978;-84
2022/12/29 11:50:59;;;;;;;3.20;2.60;;;;;;;9.24;92.93;98268.46;1666924;84;21291;-83
2022/12/29 11:53:49;;;;;;;5.17;2.50;;;;;;;9.24;92.94;98276.27;1677715;84;21017;-83
2022/12/29 11:56:20;;;;;;;3.52;2.17;;;;;;;9.32;92.98;98272.70;1707613;82;20979;-82
2022/12/29 11:58:49;;;;;;;4.03;3.10;;;;;;;9.32;92.78;98283.12;1691769;84;21061;-84
2022/12/29 12:01:39;;;;;;;7.17;5.40;;;;;;;9.34;92.94;98291.69;1689355;83;22013;-90
2022/12/29 12:04:24;;;;;;;7.15;4.97;;;;;;;9.31;92.64;98282.77;1695654;83;21434;-91
2022/12/29 12:07:22;;;;;;;4.35;3.80;;;;;;;9.22;92.53;98281.59;1712963;82;21038;-87
2022/12/29 12:10:07;;;;;;;4.10;3.27;;;;;;;9.24;92.88;98290.59;1713605;82;21084;-88
2022/12/29 12:12:59;;;;;;;3.58;3.02;;;;;;;9.29;92.84;98280.72;1713773;81;20914;-88
2022/12/29 12:15:43;;;;;;;4.22;3.20;;;;;;;9.31;92.81;98290.59;1718515;82;21077;-89
2022/12/29 12:18:34;;;;;;;5.65;3.58;;;;;;;9.34;92.81;98279.96;1696724;83;21006;-89
2022/12/29 12:25:01;;;;;;;3.60;2.70;;;;;;;9.37;92.81;98287.58;1544601;91;21063;-89
2022/12/29 12:27:58;;;;;;;3.67;2.80;;;;;;;9.43;92.81;98276.75;1522561;92;21129;-88
2022/12/29 12:30:30;;;;;;;3.83;3.17;;;;;;;9.39;92.53;98277.90;1520434;91;21031;-88
2022/12/29 12:33:18;;;;;;;5.17;3.70;;;;;;;9.38;92.63;98268.39;1500669;93;21538;-87
2022/12/29 12:36:48;;;;;;;3.73;3.20;;;;;;;9.41;92.58;98265.62;1495398;93;21585;-90
2022/12/29 12:39:40;;;;;;;4.00;2.62;;;;;;;9.35;92.38;98256.44;1466581;96;21091;-94
2022/12/29 12:42:42;;;;;;;3.95;3.05;;;;;;;9.40;92.67;98269.97;1466249;96;21173;-92
2022/12/29 12:45:45;;;;;;;3.62;3.10;;;;;;;9.43;92.50;98274.14;1466979;95;21143;-90
2022/12/29 12:48:29;;;;;;;3.58;2.65;;;;;;;9.39;92.25;98260.97;1470673;95;21557;-90
2022/12/29 12:51:34;;;;;;;4.85;3.42;;;;;;;9.35;92.33;98255.58;1469286;96;21110;-89
2022/12/29 12:54:23;;;;;;;4.12;3.10;;;;;;;9.32;92.38;98263.59;1392335;101;21085;-90
2022/12/29 12:57:28;;;;;;;;;;;;;;;;;;;;;
2022/12/29 13:00:25;;;;;;;3.62;2.37;;;;;;;9.32;92.39;98262.28;1403905;98;21144;-89
2022/12/29 13:03:18;;;;;;;5.83;3.05;;;;;;;9.30;92.28;98266.75;1501297;94;21161;-89
2022/12/29 13:06:41;;;;;;;5.03;3.00;;;;;;;9.32;92.43;98271.41;1539232;91;21108;-91
2022/12/29 13:09:33;;;;;;;4.92;2.85;;;;;;;9.29;92.19;98286.77;1538326;91;21189;-92
2022/12/29 13:12:19;;;;;;;7.55;3.35;;;;;;;9.29;92.34;98287.23;1535770;88;21543;-91
2022/12/29 13:15:15;;;;;;;5.12;4.03;;;;;;;9.31;92.44;98287.98;1584474;89;21503;-90
2022/12/29 13:18:32;;;;;;;5.25;3.02;;;;;;;9.32;92.40;98290.47;1584581;88;21618;-89
2022/12/29 13:21:16;;;;;;;4.33;3.12;;;;;;;9.33;92.48;98278.30;1585236;88;21429;-91
2022/12/29 13:24:24;;;;;;;4.70;2.77;;;;;;;9.29;92.30;98271.61;1586744;88;21121;-91
2022/12/29 13:27:10;;;;;;;3.92;3.02;;;;;;;9.29;92.36;98285.46;1586608;88;21066;-89
2022/12/29 13:29:59;;;;;;;3.30;2.60;;;;;;;9.18;92.14;98288.75;1619558;85;20969;-89
2022/12/29 13:33:06;;;;;;;4.70;2.75;;;;;;;9.17;92.30;98292.30;1667032;84;21038;-89
2022/12/29 13:36:05;;;;;;;;;;;;;;;;;;;;;
2022/12/29 13:38:24;;;;;;;;;;;;;;;9.26;92.50;98293.48;1530629;90;21094;-89
2022/12/29 13:40:59;;;;;;;4.08;3.50;;;;;;;9.22;92.29;98295.09;1583491;88;20410;-88
2022/12/29 13:43:39;;;;;;;4.80;3.67;;;;;;;9.18;92.36;98301.77;1561093;89;21181;-89
2022/12/29 13:46:18;;;;;;;4.42;3.33;;;;;;;9.18;92.33;98301.77;1575840;89;21143;-92
2022/12/29 13:49:31;;;;;;;3.22;2.47;;;;;;;9.14;92.23;98297.70;1555464;90;21087;-88
2022/12/29 13:51:57;;;;;;;4.30;2.65;;;;;;;9.14;92.35;98289.89;1584697;88;21061;-89